sensor_id;sensor_type;location;lat;lon;timestamp;P1;durP1;ratioP1;P2;durP2;ratioP2
32788;SDS011;19141;48.980;8.410;2022-09-13T04:16:06;6.95;;;3.38;;
32788;SDS011;19141;48.980;8.410;2022-09-13T04:18:32;6.35;;;2.83;;
32788;SDS011;19141;48.980;8.410;2022-09-13T04:20:58;5.50;;;2.55;;
32788;SDS011;19141;48.980;8.410;2022-09-13T04:23:25;7.80;;;3.67;;
32788;SDS011;19141;48.980;8.410;2022-09-13T04:25:51;6.95;;;2.95;;
32788;SDS011;19141;48.980;8.410;2022-09-13T04:28:17;4.43;;;2.78;;
32788;SDS011;19141;48.980;8.410;2022-09-13T04:30:44;3.60;;;2.30;;
32788;SDS011;19141;48.980;8.410;2022-09-13T04:33:10;3.83;;;2.40;;
32788;SDS011;19141;48.980;8.410;2022-09-13T04:35:36;5.93;;;3.20;;
32788;SDS011;19141;48.980;8.410;2022-09-13T04:38:03;6.33;;;2.93;;
32788;SDS011;19141;48.980;8.410;2022-09-13T04:40:29;6.85;;;2.63;;
32788;SDS011;19141;48.980;8.410;2022-09-13T04:42:54;5.13;;;2.90;;
32788;SDS011;19141;48.980;8.410;2022-09-13T04:45:19;5.03;;;2.92;;
32788;SDS011;19141;48.980;8.410;2022-09-13T04:47:49;5.13;;;2.88;;
32788;SDS011;19141;48.980;8.410;2022-09-13T04:50:16;4.35;;;2.80;;
32788;SDS011;19141;48.980;8.410;2022-09-13T04:52:42;5.78;;;2.90;;
32788;SDS011;19141;48.980;8.410;2022-09-13T04:55:07;6.47;;;2.97;;
32788;SDS011;19141;48.980;8.410;2022-09-13T04:57:33;7.57;;;3.63;;
32788;SDS011;19141;48.980;8.410;2022-09-13T04:59:58;4.25;;;2.72;;
32788;SDS011;19141;48.980;8.410;2022-09-13T05:02:24;5.47;;;3.15;;
32788;SDS011;19141;48.980;8.410;2022-09-13T05:04:49;6.10;;;3.00;;
32788;SDS011;19141;48.980;8.410;2022-09-13T05:07:14;6.18;;;3.30;;
32788;SDS011;19141;48.980;8.410;2022-09-13T05:09:40;5.80;;;3.15;;
32788;SDS011;19141;48.980;8.410;2022-09-13T05:12:05;4.03;;;3.08;;
32788;SDS011;19141;48.980;8.410;2022-09-13T05:14:31;7.43;;;3.33;;
32788;SDS011;19141;48.980;8.410;2022-09-13T05:16:56;4.35;;;2.55;;
32788;SDS011;19141;48.980;8.410;2022-09-13T05:19:21;6.15;;;2.97;;
32788;SDS011;19141;48.980;8.410;2022-09-13T05:21:47;5.07;;;2.75;;
32788;SDS011;19141;48.980;8.410;2022-09-13T05:24:12;4.72;;;3.03;;
32788;SDS011;19141;48.980;8.410;2022-09-13T05:26:38;7.20;;;2.80;;
32788;SDS011;19141;48.980;8.410;2022-09-13T05:29:03;7.20;;;3.05;;
32788;SDS011;19141;48.980;8.410;2022-09-13T05:31:33;8.27;;;3.85;;
32788;SDS011;19141;48.980;8.410;2022-09-13T05:34:01;6.32;;;3.13;;
32788;SDS011;19141;48.980;8.410;2022-09-13T05:36:31;5.57;;;3.00;;
32788;SDS011;19141;48.980;8.410;2022-09-13T05:38:57;6.97;;;3.40;;
32788;SDS011;19141;48.980;8.410;2022-09-13T05:41:24;5.55;;;2.90;;
32788;SDS011;19141;48.980;8.410;2022-09-13T05:43:50;5.43;;;2.55;;
32788;SDS011;19141;48.980;8.410;2022-09-13T05:46:16;6.05;;;2.80;;
32788;SDS011;19141;48.980;8.410;2022-09-13T05:48:44;5.38;;;3.15;;
32788;SDS011;19141;48.980;8.410;2022-09-13T05:51:10;4.97;;;3.05;;
32788;SDS011;19141;48.980;8.410;2022-09-13T05:53:39;7.00;;;3.10;;
32788;SDS011;19141;48.980;8.410;2022-09-13T05:56:09;5.88;;;3.10;;
32788;SDS011;19141;48.980;8.410;2022-09-13T05:58:37;4.28;;;2.88;;
32788;SDS011;19141;48.980;8.410;2022-09-13T06:01:04;4.57;;;2.83;;
32788;SDS011;19141;48.980;8.410;2022-09-13T06:03:30;5.40;;;2.92;;
32788;SDS011;19141;48.980;8.410;2022-09-13T06:05:56;6.88;;;2.85;;
32788;SDS011;19141;48.980;8.410;2022-09-13T06:08:25;6.88;;;3.42;;
32788;SDS011;19141;48.980;8.410;2022-09-13T06:10:57;6.45;;;3.08;;
32788;SDS011;19141;48.980;8.410;2022-09-13T06:13:24;4.25;;;2.70;;
32788;SDS011;19141;48.980;8.410;2022-09-13T06:15:51;6.60;;;2.93;;
32788;SDS011;19141;48.980;8.410;2022-09-13T06:18:17;4.07;;;3.15;;
32788;SDS011;19141;48.980;8.410;2022-09-13T06:20:43;3.22;;;2.80;;
32788;SDS011;19141;48.980;8.410;2022-09-13T06:23:09;5.70;;;2.88;;
32788;SDS011;19141;48.980;8.410;2022-09-13T06:25:35;8.27;;;3.55;;
32788;SDS011;19141;48.980;8.410;2022-09-13T06:28:00;7.95;;;3.65;;
32788;SDS011;19141;48.980;8.410;2022-09-13T06:30:25;6.53;;;3.13;;
32788;SDS011;19141;48.980;8.410;2022-09-13T06:32:51;6.05;;;3.83;;
32788;SDS011;19141;48.980;8.410;2022-09-13T06:35:16;6.30;;;3.28;;
32788;SDS011;19141;48.980;8.410;2022-09-13T06:37:42;5.68;;;3.28;;
32788;SDS011;19141;48.980;8.410;2022-09-13T06:40:08;7.15;;;3.30;;
32788;SDS011;19141;48.980;8.410;2022-09-13T06:42:34;5.88;;;3.60;;
32788;SDS011;19141;48.980;8.410;2022-09-13T06:45:00;5.47;;;3.28;;
32788;SDS011;19141;48.980;8.410;2022-09-13T06:47:26;6.63;;;2.85;;
32788;SDS011;19141;48.980;8.410;2022-09-13T06:49:51;7.57;;;3.10;;
32788;SDS011;19141;48.980;8.410;2022-09-13T06:52:16;7.13;;;3.63;;
32788;SDS011;19141;48.980;8.410;2022-09-13T06:54:42;4.95;;;2.85;;
32788;SDS011;19141;48.980;8.410;2022-09-13T06:57:08;9.45;;;3.15;;
32788;SDS011;19141;48.980;8.410;2022-09-13T06:59:33;6.00;;;3.05;;
32788;SDS011;19141;48.980;8.410;2022-09-13T07:01:59;7.93;;;3.30;;
32788;SDS011;19141;48.980;8.410;2022-09-13T07:04:24;5.63;;;3.08;;
32788;SDS011;19141;48.980;8.410;2022-09-13T07:06:50;7.47;;;3.30;;
32788;SDS011;19141;48.980;8.410;2022-09-13T07:09:17;5.03;;;2.80;;
32788;SDS011;19141;48.980;8.410;2022-09-13T07:11:44;3.88;;;2.78;;
32788;SDS011;19141;48.980;8.410;2022-09-13T07:14:14;7.10;;;3.40;;
32788;SDS011;19141;48.980;8.410;2022-09-13T07:16:42;4.70;;;2.75;;
32788;SDS011;19141;48.980;8.410;2022-09-13T07:19:14;5.05;;;2.63;;
32788;SDS011;19141;48.980;8.410;2022-09-13T07:21:46;4.28;;;2.58;;
32788;SDS011;19141;48.980;8.410;2022-09-13T07:24:13;5.75;;;3.20;;
32788;SDS011;19141;48.980;8.410;2022-09-13T07:26:40;5.72;;;2.67;;
32788;SDS011;19141;48.980;8.410;2022-09-13T07:29:06;4.53;;;2.65;;
32788;SDS011;19141;48.980;8.410;2022-09-13T07:34:04;5.38;;;3.05;;
32788;SDS011;19141;48.980;8.410;2022-09-13T07:36:32;3.38;;;2.25;;
32788;SDS011;19141;48.980;8.410;2022-09-13T07:38:59;5.53;;;2.97;;
32788;SDS011;19141;48.980;8.410;2022-09-13T07:41:26;5.22;;;2.30;;
32788;SDS011;19141;48.980;8.410;2022-09-13T07:43:52;5.38;;;2.90;;
32788;SDS011;19141;48.980;8.410;2022-09-13T07:46:20;6.13;;;2.63;;
32788;SDS011;19141;48.980;8.410;2022-09-13T07:48:47;5.25;;;2.97;;
32788;SDS011;19141;48.980;8.410;2022-09-13T07:51:15;5.43;;;3.13;;
32788;SDS011;19141;48.980;8.410;2022-09-13T07:53:48;3.97;;;2.78;;
32788;SDS011;19141;48.980;8.410;2022-09-13T07:56:15;4.03;;;2.50;;
32788;SDS011;19141;48.980;8.410;2022-09-13T07:58:42;7.57;;;2.88;;
32788;SDS011;19141;48.980;8.410;2022-09-13T08:01:13;5.33;;;3.00;;
32788;SDS011;19141;48.980;8.410;2022-09-13T08:03:59;8.32;;;2.60;;
32788;SDS011;19141;48.980;8.410;2022-09-13T08:06:28;4.07;;;2.53;;
32788;SDS011;19141;48.980;8.410;2022-09-13T08:11:22;4.88;;;2.60;;
32788;SDS011;19141;48.980;8.410;2022-09-13T08:13:49;7.07;;;2.95;;
32788;SDS011;19141;48.980;8.410;2022-09-13T08:16:16;2.50;;;1.65;;
32788;SDS011;19141;48.980;8.410;2022-09-13T08:18:43;4.70;;;2.58;;
32788;SDS011;19141;48.980;8.410;2022-09-13T08:21:10;3.75;;;2.80;;
32788;SDS011;19141;48.980;8.410;2022-09-13T08:23:35;4.68;;;2.22;;
32788;SDS011;19141;48.980;8.410;2022-09-13T08:26:01;2.30;;;1.95;;
32788;SDS011;19141;48.980;8.410;2022-09-13T08:28:27;3.72;;;2.50;;
32788;SDS011;19141;48.980;8.410;2022-09-13T08:30:54;4.38;;;2.40;;
32788;SDS011;19141;48.980;8.410;2022-09-13T08:33:19;5.50;;;2.10;;
32788;SDS011;19141;48.980;8.410;2022-09-13T08:35:49;2.63;;;1.70;;
32788;SDS011;19141;48.980;8.410;2022-09-13T08:38:18;3.47;;;2.35;;
32788;SDS011;19141;48.980;8.410;2022-09-13T08:40:49;1.70;;;1.45;;
32788;SDS011;19141;48.980;8.410;2022-09-13T08:43:33;4.15;;;2.00;;
32788;SDS011;19141;48.980;8.410;2022-09-13T08:46:12;3.38;;;1.90;;
32788;SDS011;19141;48.980;8.410;2022-09-13T08:48:42;5.63;;;2.22;;
32788;SDS011;19141;48.980;8.410;2022-09-13T08:53:51;2.30;;;1.45;;
32788;SDS011;19141;48.980;8.410;2022-09-13T08:56:28;2.45;;;1.77;;
32788;SDS011;19141;48.980;8.410;2022-09-13T09:02:10;3.75;;;1.98;;
32788;SDS011;19141;48.980;8.410;2022-09-13T09:05:11;3.17;;;1.90;;
32788;SDS011;19141;48.980;8.410;2022-09-13T09:07:41;2.15;;;1.80;;
32788;SDS011;19141;48.980;8.410;2022-09-13T09:10:15;2.78;;;1.90;;
32788;SDS011;19141;48.980;8.410;2022-09-13T09:15:24;2.78;;;1.90;;
32788;SDS011;19141;48.980;8.410;2022-09-13T09:18:05;1.88;;;1.60;;
32788;SDS011;19141;48.980;8.410;2022-09-13T09:20:43;2.45;;;1.80;;
32788;SDS011;19141;48.980;8.410;2022-09-13T09:23:13;2.15;;;1.60;;
32788;SDS011;19141;48.980;8.410;2022-09-13T09:25:39;2.17;;;1.95;;
32788;SDS011;19141;48.980;8.410;2022-09-13T09:28:11;1.88;;;1.60;;
32788;SDS011;19141;48.980;8.410;2022-09-13T09:30:47;2.63;;;1.63;;
32788;SDS011;19141;48.980;8.410;2022-09-13T09:33:22;2.15;;;1.80;;
32788;SDS011;19141;48.980;8.410;2022-09-13T09:36:44;3.10;;;2.00;;
32788;SDS011;19141;48.980;8.410;2022-09-13T09:39:18;2.13;;;1.60;;
32788;SDS011;19141;48.980;8.410;2022-09-13T09:41:44;2.22;;;1.60;;
32788;SDS011;19141;48.980;8.410;2022-09-13T09:44:23;2.17;;;1.48;;
32788;SDS011;19141;48.980;8.410;2022-09-13T09:46:56;2.20;;;1.52;;
32788;SDS011;19141;48.980;8.410;2022-09-13T09:49:36;2.55;;;1.42;;
32788;SDS011;19141;48.980;8.410;2022-09-13T09:52:27;3.42;;;1.73;;
32788;SDS011;19141;48.980;8.410;2022-09-13T09:54:59;1.95;;;1.40;;
32788;SDS011;19141;48.980;8.410;2022-09-13T10:00:23;1.85;;;1.33;;
32788;SDS011;19141;48.980;8.410;2022-09-13T10:02:56;3.30;;;1.80;;
32788;SDS011;19141;48.980;8.410;2022-09-13T10:05:23;1.70;;;1.27;;
32788;SDS011;19141;48.980;8.410;2022-09-13T10:07:52;4.63;;;1.40;;
32788;SDS011;19141;48.980;8.410;2022-09-13T10:11:04;3.13;;;1.77;;
32788;SDS011;19141;48.980;8.410;2022-09-13T10:13:18;3.28;;;2.03;;
32788;SDS011;19141;48.980;8.410;2022-09-13T10:15:52;1.88;;;1.77;;
32788;SDS011;19141;48.980;8.410;2022-09-13T10:18:20;2.15;;;1.35;;
32788;SDS011;19141;48.980;8.410;2022-09-13T10:21:00;2.10;;;1.77;;
32788;SDS011;19141;48.980;8.410;2022-09-13T10:23:28;1.65;;;1.55;;
32788;SDS011;19141;48.980;8.410;2022-09-13T10:28:40;1.85;;;1.48;;
32788;SDS011;19141;48.980;8.410;2022-09-13T10:31:10;2.45;;;1.60;;
32788;SDS011;19141;48.980;8.410;2022-09-13T10:33:39;2.58;;;1.65;;
32788;SDS011;19141;48.980;8.410;2022-09-13T10:36:15;1.70;;;1.23;;
32788;SDS011;19141;48.980;8.410;2022-09-13T10:38:48;1.92;;;1.27;;
32788;SDS011;19141;48.980;8.410;2022-09-13T10:41:22;1.80;;;0.90;;
32788;SDS011;19141;48.980;8.410;2022-09-13T10:43:56;1.63;;;1.20;;
32788;SDS011;19141;48.980;8.410;2022-09-13T10:46:23;2.67;;;1.20;;
32788;SDS011;19141;48.980;8.410;2022-09-13T10:48:50;1.58;;;1.23;;
32788;SDS011;19141;48.980;8.410;2022-09-13T10:54:07;1.48;;;1.27;;
32788;SDS011;19141;48.980;8.410;2022-09-13T10:56:36;1.75;;;1.20;;
32788;SDS011;19141;48.980;8.410;2022-09-13T11:01:55;3.38;;;1.58;;
32788;SDS011;19141;48.980;8.410;2022-09-13T11:07:28;1.63;;;1.40;;
32788;SDS011;19141;48.980;8.410;2022-09-13T11:10:17;2.03;;;1.25;;
32788;SDS011;19141;48.980;8.410;2022-09-13T11:13:26;1.55;;;1.45;;
32788;SDS011;19141;48.980;8.410;2022-09-13T11:27:24;2.38;;;1.10;;
32788;SDS011;19141;48.980;8.410;2022-09-13T11:38:22;2.13;;;1.20;;
32788;SDS011;19141;48.980;8.410;2022-09-13T11:51:50;1.67;;;1.50;;
32788;SDS011;19141;48.980;8.410;2022-09-13T11:54:34;2.03;;;1.17;;
32788;SDS011;19141;48.980;8.410;2022-09-13T11:57:18;1.20;;;1.10;;
32788;SDS011;19141;48.980;8.410;2022-09-13T12:05:00;0.82;;;0.82;;
32788;SDS011;19141;48.980;8.410;2022-09-13T12:07:36;2.38;;;1.23;;
32788;SDS011;19141;48.980;8.410;2022-09-13T12:10:49;1.10;;;1.00;;
32788;SDS011;19141;48.980;8.410;2022-09-13T12:13:01;1.58;;;1.10;;
32788;SDS011;19141;48.980;8.410;2022-09-13T12:17:59;6.65;;;1.42;;
32788;SDS011;19141;48.980;8.410;2022-09-13T12:20:34;1.25;;;1.10;;
32788;SDS011;19141;48.980;8.410;2022-09-13T12:23:06;2.38;;;0.98;;
32788;SDS011;19141;48.980;8.410;2022-09-13T12:25:54;1.05;;;0.90;;
32788;SDS011;19141;48.980;8.410;2022-09-13T12:28:25;1.10;;;1.00;;
32788;SDS011;19141;48.980;8.410;2022-09-13T12:31:27;1.60;;;0.90;;
32788;SDS011;19141;48.980;8.410;2022-09-13T12:33:54;1.33;;;0.82;;
32788;SDS011;19141;48.980;8.410;2022-09-13T12:55:42;0.80;;;0.70;;
32788;SDS011;19141;48.980;8.410;2022-09-13T13:01:20;0.70;;;0.70;;
32788;SDS011;19141;48.980;8.410;2022-09-13T13:03:50;0.93;;;0.73;;
32788;SDS011;19141;48.980;8.410;2022-09-13T13:08:57;0.80;;;0.70;;
32788;SDS011;19141;48.980;8.410;2022-09-13T13:11:26;1.50;;;0.93;;
32788;SDS011;19141;48.980;8.410;2022-09-13T13:13:59;1.35;;;0.98;;
32788;SDS011;19141;48.980;8.410;2022-09-13T13:16:37;0.90;;;0.73;;
32788;SDS011;19141;48.980;8.410;2022-09-13T13:21:53;0.65;;;0.63;;
32788;SDS011;19141;48.980;8.410;2022-09-13T13:26:51;0.97;;;0.77;;
32788;SDS011;19141;48.980;8.410;2022-09-13T13:29:21;1.33;;;0.80;;
32788;SDS011;19141;48.980;8.410;2022-09-13T13:39:42;0.90;;;0.73;;
32788;SDS011;19141;48.980;8.410;2022-09-13T13:42:21;0.90;;;0.70;;
32788;SDS011;19141;48.980;8.410;2022-09-13T13:49:42;0.67;;;0.67;;
32788;SDS011;19141;48.980;8.410;2022-09-13T13:57:22;0.93;;;0.70;;
32788;SDS011;19141;48.980;8.410;2022-09-13T13:59:54;0.55;;;0.55;;
32788;SDS011;19141;48.980;8.410;2022-09-13T14:05:25;0.88;;;0.57;;
32788;SDS011;19141;48.980;8.410;2022-09-13T14:14:01;2.72;;;1.00;;
32788;SDS011;19141;48.980;8.410;2022-09-13T14:19:29;0.98;;;0.90;;
32788;SDS011;19141;48.980;8.410;2022-09-13T14:22:12;0.82;;;0.68;;
32788;SDS011;19141;48.980;8.410;2022-09-13T14:24:44;0.73;;;0.70;;
32788;SDS011;19141;48.980;8.410;2022-09-13T14:27:29;0.70;;;0.70;;
32788;SDS011;19141;48.980;8.410;2022-09-13T14:29:59;0.77;;;0.77;;
32788;SDS011;19141;48.980;8.410;2022-09-13T14:32:40;1.05;;;0.77;;
32788;SDS011;19141;48.980;8.410;2022-09-13T14:37:53;1.05;;;0.85;;
32788;SDS011;19141;48.980;8.410;2022-09-13T14:40:22;1.13;;;0.90;;
32788;SDS011;19141;48.980;8.410;2022-09-13T14:42:50;1.85;;;0.90;;
32788;SDS011;19141;48.980;8.410;2022-09-13T14:48:01;1.10;;;0.90;;
32788;SDS011;19141;48.980;8.410;2022-09-13T14:50:38;0.98;;;0.63;;
32788;SDS011;19141;48.980;8.410;2022-09-13T14:53:10;1.38;;;0.90;;
32788;SDS011;19141;48.980;8.410;2022-09-13T14:55:40;1.00;;;0.80;;
32788;SDS011;19141;48.980;8.410;2022-09-13T14:58:14;1.30;;;0.98;;
32788;SDS011;19141;48.980;8.410;2022-09-13T15:03:42;1.98;;;1.00;;
32788;SDS011;19141;48.980;8.410;2022-09-13T15:06:19;0.82;;;0.82;;
32788;SDS011;19141;48.980;8.410;2022-09-13T15:08:47;1.25;;;0.80;;
32788;SDS011;19141;48.980;8.410;2022-09-13T15:11:14;1.58;;;1.10;;
32788;SDS011;19141;48.980;8.410;2022-09-13T15:13:59;2.08;;;1.30;;
32788;SDS011;19141;48.980;8.410;2022-09-13T15:16:29;6.65;;;3.97;;
32788;SDS011;19141;48.980;8.410;2022-09-13T15:24:38;1.63;;;1.23;;
32788;SDS011;19141;48.980;8.410;2022-09-13T15:27:15;1.30;;;1.10;;
32788;SDS011;19141;48.980;8.410;2022-09-13T15:29:56;1.23;;;0.95;;
32788;SDS011;19141;48.980;8.410;2022-09-13T15:32:38;2.05;;;1.38;;
32788;SDS011;19141;48.980;8.410;2022-09-13T15:35:21;1.20;;;0.88;;
32788;SDS011;19141;48.980;8.410;2022-09-13T15:37:57;1.35;;;1.23;;
32788;SDS011;19141;48.980;8.410;2022-09-13T15:40:25;1.40;;;1.00;;
32788;SDS011;19141;48.980;8.410;2022-09-13T15:42:53;2.08;;;0.95;;
32788;SDS011;19141;48.980;8.410;2022-09-13T15:45:20;1.05;;;0.98;;
32788;SDS011;19141;48.980;8.410;2022-09-13T15:47:47;1.17;;;0.90;;
32788;SDS011;19141;48.980;8.410;2022-09-13T15:52:46;0.80;;;0.75;;
32788;SDS011;19141;48.980;8.410;2022-09-13T15:55:12;0.90;;;0.80;;
32788;SDS011;19141;48.980;8.410;2022-09-13T15:57:37;2.47;;;1.10;;
32788;SDS011;19141;48.980;8.410;2022-09-13T16:00:03;1.27;;;1.10;;
32788;SDS011;19141;48.980;8.410;2022-09-13T16:02:34;0.80;;;0.80;;
32788;SDS011;19141;48.980;8.410;2022-09-13T16:05:00;0.70;;;0.70;;
32788;SDS011;19141;48.980;8.410;2022-09-13T16:07:25;1.98;;;1.40;;
32788;SDS011;19141;48.980;8.410;2022-09-13T16:09:51;2.03;;;1.35;;
32788;SDS011;19141;48.980;8.410;2022-09-13T16:12:17;1.45;;;1.20;;
32788;SDS011;19141;48.980;8.410;2022-09-13T16:14:43;1.42;;;1.15;;
32788;SDS011;19141;48.980;8.410;2022-09-13T16:17:19;1.77;;;1.00;;
32788;SDS011;19141;48.980;8.410;2022-09-13T16:19:50;2.40;;;1.20;;
32788;SDS011;19141;48.980;8.410;2022-09-13T16:22:16;1.03;;;0.90;;
32788;SDS011;19141;48.980;8.410;2022-09-13T16:24:42;1.27;;;1.02;;
32788;SDS011;19141;48.980;8.410;2022-09-13T16:27:08;2.42;;;0.80;;
32788;SDS011;19141;48.980;8.410;2022-09-13T16:29:38;1.42;;;0.90;;
32788;SDS011;19141;48.980;8.410;2022-09-13T16:32:04;1.38;;;1.20;;
32788;SDS011;19141;48.980;8.410;2022-09-13T16:34:30;1.42;;;1.33;;
32788;SDS011;19141;48.980;8.410;2022-09-13T16:36:55;2.55;;;1.42;;
32788;SDS011;19141;48.980;8.410;2022-09-13T16:39:20;1.45;;;1.00;;
32788;SDS011;19141;48.980;8.410;2022-09-13T16:41:46;2.58;;;1.20;;
32788;SDS011;19141;48.980;8.410;2022-09-13T16:44:12;2.22;;;1.38;;
32788;SDS011;19141;48.980;8.410;2022-09-13T16:46:38;1.42;;;0.98;;
32788;SDS011;19141;48.980;8.410;2022-09-13T16:49:04;0.93;;;0.88;;
32788;SDS011;19141;48.980;8.410;2022-09-13T16:51:30;3.38;;;0.88;;
32788;SDS011;19141;48.980;8.410;2022-09-13T16:53:55;0.98;;;0.88;;
32788;SDS011;19141;48.980;8.410;2022-09-13T16:56:24;1.50;;;0.90;;
32788;SDS011;19141;48.980;8.410;2022-09-13T16:58:50;1.20;;;1.10;;
32788;SDS011;19141;48.980;8.410;2022-09-13T17:01:18;0.70;;;0.70;;
32788;SDS011;19141;48.980;8.410;2022-09-13T17:03:46;1.05;;;0.90;;
32788;SDS011;19141;48.980;8.410;2022-09-13T17:06:13;0.70;;;0.70;;
32788;SDS011;19141;48.980;8.410;2022-09-13T17:08:41;1.00;;;0.80;;
32788;SDS011;19141;48.980;8.410;2022-09-13T17:11:12;1.33;;;0.90;;
32788;SDS011;19141;48.980;8.410;2022-09-13T17:13:39;0.90;;;0.80;;
32788;SDS011;19141;48.980;8.410;2022-09-13T17:16:06;1.05;;;0.80;;
32788;SDS011;19141;48.980;8.410;2022-09-13T17:18:42;2.38;;;1.50;;
32788;SDS011;19141;48.980;8.410;2022-09-13T17:21:08;2.58;;;1.80;;
32788;SDS011;19141;48.980;8.410;2022-09-13T17:23:33;2.22;;;1.60;;
32788;SDS011;19141;48.980;8.410;2022-09-13T17:25:58;1.33;;;1.02;;
32788;SDS011;19141;48.980;8.410;2022-09-13T17:28:24;1.88;;;1.13;;
32788;SDS011;19141;48.980;8.410;2022-09-13T17:30:49;2.88;;;1.13;;
32788;SDS011;19141;48.980;8.410;2022-09-13T17:33:15;1.20;;;1.05;;
32788;SDS011;19141;48.980;8.410;2022-09-13T17:35:40;1.50;;;1.00;;
32788;SDS011;19141;48.980;8.410;2022-09-13T17:38:07;1.90;;;1.20;;
32788;SDS011;19141;48.980;8.410;2022-09-13T17:40:33;2.33;;;1.20;;
32788;SDS011;19141;48.980;8.410;2022-09-13T17:42:59;0.97;;;0.87;;
32788;SDS011;19141;48.980;8.410;2022-09-13T17:45:25;1.33;;;1.10;;
32788;SDS011;19141;48.980;8.410;2022-09-13T17:47:51;1.73;;;1.10;;
32788;SDS011;19141;48.980;8.410;2022-09-13T17:50:17;1.10;;;1.00;;
32788;SDS011;19141;48.980;8.410;2022-09-13T17:52:43;1.10;;;0.90;;
32788;SDS011;19141;48.980;8.410;2022-09-13T17:55:08;2.25;;;1.33;;
32788;SDS011;19141;48.980;8.410;2022-09-13T17:57:34;1.88;;;1.20;;
32788;SDS011;19141;48.980;8.410;2022-09-13T18:00:00;1.25;;;1.00;;
32788;SDS011;19141;48.980;8.410;2022-09-13T18:02:26;1.75;;;1.23;;
32788;SDS011;19141;48.980;8.410;2022-09-13T18:04:51;1.13;;;1.00;;
32788;SDS011;19141;48.980;8.410;2022-09-13T18:07:17;1.30;;;1.20;;
32788;SDS011;19141;48.980;8.410;2022-09-13T18:09:43;1.45;;;1.35;;
32788;SDS011;19141;48.980;8.410;2022-09-13T18:12:08;1.45;;;0.93;;
32788;SDS011;19141;48.980;8.410;2022-09-13T18:14:34;1.58;;;0.95;;
32788;SDS011;19141;48.980;8.410;2022-09-13T18:16:59;7.13;;;1.10;;
32788;SDS011;19141;48.980;8.410;2022-09-13T18:19:25;2.22;;;1.40;;
32788;SDS011;19141;48.980;8.410;2022-09-13T18:21:52;2.70;;;1.40;;
32788;SDS011;19141;48.980;8.410;2022-09-13T18:24:17;2.38;;;1.05;;
32788;SDS011;19141;48.980;8.410;2022-09-13T18:26:43;1.48;;;1.20;;
32788;SDS011;19141;48.980;8.410;2022-09-13T18:29:09;1.45;;;1.27;;
32788;SDS011;19141;48.980;8.410;2022-09-13T18:31:36;1.40;;;1.13;;
32788;SDS011;19141;48.980;8.410;2022-09-13T18:34:04;1.20;;;1.10;;
32788;SDS011;19141;48.980;8.410;2022-09-13T18:36:31;1.75;;;0.98;;
32788;SDS011;19141;48.980;8.410;2022-09-13T18:38:58;1.42;;;1.20;;
32788;SDS011;19141;48.980;8.410;2022-09-13T18:41:29;5.05;;;1.35;;
32788;SDS011;19141;48.980;8.410;2022-09-13T18:43:57;2.20;;;1.25;;
32788;SDS011;19141;48.980;8.410;2022-09-13T18:46:24;1.77;;;1.38;;
32788;SDS011;19141;48.980;8.410;2022-09-13T18:48:52;2.95;;;1.50;;
32788;SDS011;19141;48.980;8.410;2022-09-13T18:51:28;3.15;;;1.60;;
32788;SDS011;19141;48.980;8.410;2022-09-13T18:56:24;1.80;;;1.13;;
32788;SDS011;19141;48.980;8.410;2022-09-13T18:58:51;2.03;;;1.45;;
32788;SDS011;19141;48.980;8.410;2022-09-13T19:01:21;1.52;;;1.30;;
32788;SDS011;19141;48.980;8.410;2022-09-13T19:03:52;1.63;;;1.52;;
32788;SDS011;19141;48.980;8.410;2022-09-13T19:06:24;4.47;;;1.63;;
32788;SDS011;19141;48.980;8.410;2022-09-13T19:08:52;1.60;;;1.45;;
32788;SDS011;19141;48.980;8.410;2022-09-13T19:11:19;2.55;;;1.58;;
32788;SDS011;19141;48.980;8.410;2022-09-13T19:13:46;2.25;;;1.77;;
32788;SDS011;19141;48.980;8.410;2022-09-13T19:16:13;1.70;;;1.30;;
32788;SDS011;19141;48.980;8.410;2022-09-13T19:18:41;2.63;;;1.70;;
32788;SDS011;19141;48.980;8.410;2022-09-13T19:21:08;2.00;;;1.52;;
32788;SDS011;19141;48.980;8.410;2022-09-13T19:23:36;8.70;;;1.80;;
32788;SDS011;19141;48.980;8.410;2022-09-13T19:26:06;2.67;;;1.33;;
32788;SDS011;19141;48.980;8.410;2022-09-13T19:28:38;2.63;;;1.58;;
32788;SDS011;19141;48.980;8.410;2022-09-13T19:31:05;1.67;;;1.55;;
32788;SDS011;19141;48.980;8.410;2022-09-13T19:33:32;1.58;;;1.38;;
32788;SDS011;19141;48.980;8.410;2022-09-13T19:35:59;2.90;;;1.67;;
32788;SDS011;19141;48.980;8.410;2022-09-13T19:38:39;6.28;;;1.67;;
32788;SDS011;19141;48.980;8.410;2022-09-13T19:41:06;2.35;;;1.65;;
32788;SDS011;19141;48.980;8.410;2022-09-13T19:43:34;2.30;;;1.70;;
32788;SDS011;19141;48.980;8.410;2022-09-13T19:46:10;1.40;;;1.30;;
32788;SDS011;19141;48.980;8.410;2022-09-13T19:48:38;2.00;;;1.42;;
32788;SDS011;19141;48.980;8.410;2022-09-13T19:51:05;2.08;;;1.63;;
32788;SDS011;19141;48.980;8.410;2022-09-13T19:53:33;2.15;;;1.50;;
32788;SDS011;19141;48.980;8.410;2022-09-13T19:56:02;2.33;;;1.60;;
32788;SDS011;19141;48.980;8.410;2022-09-13T19:58:33;2.80;;;1.70;;
32788;SDS011;19141;48.980;8.410;2022-09-13T20:01:03;2.10;;;1.77;;
32788;SDS011;19141;48.980;8.410;2022-09-13T20:03:33;1.88;;;1.40;;
32788;SDS011;19141;48.980;8.410;2022-09-13T20:06:04;3.50;;;1.63;;
32788;SDS011;19141;48.980;8.410;2022-09-13T20:08:31;2.30;;;1.73;;
32788;SDS011;19141;48.980;8.410;2022-09-13T20:11:02;1.30;;;1.20;;
32788;SDS011;19141;48.980;8.410;2022-09-13T20:13:31;2.53;;;1.70;;
32788;SDS011;19141;48.980;8.410;2022-09-13T20:15:58;2.15;;;1.50;;
32788;SDS011;19141;48.980;8.410;2022-09-13T20:18:23;1.98;;;1.70;;
32788;SDS011;19141;48.980;8.410;2022-09-13T20:20:49;3.10;;;1.92;;
32788;SDS011;19141;48.980;8.410;2022-09-13T20:23:15;3.25;;;1.70;;
32788;SDS011;19141;48.980;8.410;2022-09-13T20:25:42;2.43;;;1.90;;
32788;SDS011;19141;48.980;8.410;2022-09-13T20:28:08;1.73;;;1.50;;
32788;SDS011;19141;48.980;8.410;2022-09-13T20:30:34;2.35;;;1.63;;
32788;SDS011;19141;48.980;8.410;2022-09-13T20:33:01;2.67;;;2.00;;
32788;SDS011;19141;48.980;8.410;2022-09-13T20:35:27;2.00;;;1.53;;
32788;SDS011;19141;48.980;8.410;2022-09-13T20:37:54;2.38;;;1.67;;
32788;SDS011;19141;48.980;8.410;2022-09-13T20:40:19;2.45;;;1.80;;
32788;SDS011;19141;48.980;8.410;2022-09-13T20:42:48;2.15;;;1.70;;
32788;SDS011;19141;48.980;8.410;2022-09-13T20:45:13;2.38;;;1.83;;
32788;SDS011;19141;48.980;8.410;2022-09-13T20:47:40;2.92;;;1.73;;
32788;SDS011;19141;48.980;8.410;2022-09-13T20:50:06;2.42;;;1.90;;
32788;SDS011;19141;48.980;8.410;2022-09-13T20:52:32;3.38;;;2.33;;
32788;SDS011;19141;48.980;8.410;2022-09-13T20:54:57;2.67;;;1.90;;
32788;SDS011;19141;48.980;8.410;2022-09-13T20:57:23;3.13;;;2.10;;
32788;SDS011;19141;48.980;8.410;2022-09-13T20:59:49;4.28;;;2.17;;
32788;SDS011;19141;48.980;8.410;2022-09-13T21:02:15;2.28;;;1.50;;
32788;SDS011;19141;48.980;8.410;2022-09-13T21:04:41;2.58;;;1.88;;
32788;SDS011;19141;48.980;8.410;2022-09-13T21:07:09;4.22;;;2.30;;
32788;SDS011;19141;48.980;8.410;2022-09-13T21:09:54;2.13;;;1.77;;
32788;SDS011;19141;48.980;8.410;2022-09-13T21:12:19;2.72;;;1.90;;
32788;SDS011;19141;48.980;8.410;2022-09-13T21:14:45;3.33;;;2.25;;
32788;SDS011;19141;48.980;8.410;2022-09-13T21:17:10;2.42;;;1.80;;
32788;SDS011;19141;48.980;8.410;2022-09-13T21:19:36;3.85;;;2.33;;
32788;SDS011;19141;48.980;8.410;2022-09-13T21:22:02;5.13;;;3.13;;
32788;SDS011;19141;48.980;8.410;2022-09-13T21:24:27;2.97;;;2.30;;
32788;SDS011;19141;48.980;8.410;2022-09-13T21:26:53;2.63;;;1.80;;
32788;SDS011;19141;48.980;8.410;2022-09-13T21:29:19;3.35;;;2.40;;
32788;SDS011;19141;48.980;8.410;2022-09-13T21:31:45;3.38;;;2.17;;
32788;SDS011;19141;48.980;8.410;2022-09-13T21:34:14;3.15;;;2.17;;
32788;SDS011;19141;48.980;8.410;2022-09-13T21:36:41;3.15;;;2.13;;
32788;SDS011;19141;48.980;8.410;2022-09-13T21:39:08;2.47;;;2.10;;
32788;SDS011;19141;48.980;8.410;2022-09-13T21:41:34;4.75;;;2.25;;